createdAt,value
2019-03-17T00:00:23.955Z,996.25
2019-03-17T00:00:49.943Z,996.22
2019-03-17T00:01:15.950Z,996.24
2019-03-17T00:01:42.018Z,996.19
2019-03-17T00:02:07.940Z,996.25
2019-03-17T00:02:33.960Z,996.17
2019-03-17T00:02:59.950Z,996.19
2019-03-17T00:03:25.959Z,996.23
2019-03-17T00:03:51.943Z,996.24
2019-03-17T00:04:17.947Z,996.17
2019-03-17T00:04:43.962Z,996.19
2019-03-17T00:05:10.013Z,996.23
2019-03-17T00:05:35.964Z,996.15
2019-03-17T00:06:01.962Z,996.17
2019-03-17T00:06:27.949Z,996.17
2019-03-17T00:06:53.966Z,996.16
2019-03-17T00:07:19.951Z,996.18
2019-03-17T00:07:45.965Z,996.16
2019-03-17T00:08:11.949Z,996.16
2019-03-17T00:08:37.959Z,996.16
2019-03-17T00:09:04.031Z,996.19
2019-03-17T00:09:29.964Z,996.16
2019-03-17T00:09:55.970Z,996.17
2019-03-17T00:10:21.954Z,996.19
2019-03-17T00:10:47.956Z,996.17
2019-03-17T00:11:13.956Z,996.2
2019-03-17T00:11:39.964Z,996.13
2019-03-17T00:12:06.303Z,996.09
2019-03-17T00:12:31.971Z,996.09
2019-03-17T00:12:57.956Z,996.08
2019-03-17T00:13:23.972Z,996.12
2019-03-17T00:13:49.958Z,996.06
2019-03-17T00:14:16.036Z,996.08
2019-03-17T00:14:41.966Z,996.09
2019-03-17T00:15:08.033Z,996.02
2019-03-17T00:15:33.976Z,996.11
2019-03-17T00:16:00.215Z,996.05
2019-03-17T00:16:25.989Z,996.06
2019-03-17T00:16:51.964Z,996
2019-03-17T00:17:17.970Z,996
2019-03-17T00:17:43.970Z,995.98
2019-03-17T00:18:10.045Z,996.05
2019-03-17T00:18:35.980Z,995.97
2019-03-17T00:19:01.983Z,995.98
2019-03-17T00:19:27.967Z,996.05
2019-03-17T00:19:53.983Z,996.06
2019-03-17T00:20:19.973Z,996.01
2019-03-17T00:20:45.979Z,995.99
2019-03-17T00:21:11.990Z,995.96
2019-03-17T00:21:37.984Z,995.97
2019-03-17T00:22:04.050Z,995.98
2019-03-17T00:22:29.983Z,995.94
2019-03-17T00:22:55.989Z,995.94
2019-03-17T00:23:21.987Z,995.93
2019-03-17T00:23:47.980Z,995.94
2019-03-17T00:24:13.974Z,995.95
2019-03-17T00:24:39.976Z,995.9
2019-03-17T00:25:05.987Z,995.85
2019-03-17T00:25:32.050Z,995.91
2019-03-17T00:25:58.216Z,995.82
2019-03-17T00:26:23.993Z,995.83
2019-03-17T00:26:49.976Z,995.84
2019-03-17T00:27:15.990Z,995.86
2019-03-17T00:27:41.980Z,995.87
2019-03-17T00:28:07.981Z,995.85
2019-03-17T00:28:33.991Z,995.77
2019-03-17T00:29:00.057Z,995.8
2019-03-17T00:29:25.998Z,995.78
2019-03-17T00:29:51.996Z,995.83
2019-03-17T00:30:17.984Z,995.8
2019-03-17T00:30:43.998Z,995.81
2019-03-17T00:31:09.989Z,995.75
2019-03-17T00:31:36.000Z,995.69
2019-03-17T00:32:01.982Z,995.76
2019-03-17T00:32:27.987Z,995.68
2019-03-17T00:32:54.002Z,995.65
2019-03-17T00:33:19.987Z,995.66
2019-03-17T00:33:46.001Z,995.71
2019-03-17T00:34:11.986Z,995.74
2019-03-17T00:34:37.994Z,995.75
2019-03-17T00:35:03.994Z,995.78
2019-03-17T00:35:30.010Z,995.69
2019-03-17T00:35:56.008Z,995.69
2019-03-17T00:36:22.017Z,995.7
2019-03-17T00:36:47.990Z,995.66
2019-03-17T00:37:14.012Z,995.67
2019-03-17T00:37:39.994Z,995.62
2019-03-17T00:38:05.989Z,995.66
2019-03-17T00:38:32.016Z,995.66
2019-03-17T00:38:58.473Z,995.69
2019-03-17T00:39:24.011Z,995.66
2019-03-17T00:39:49.997Z,995.61
2019-03-17T00:40:16.014Z,995.57
2019-03-17T00:40:42.000Z,995.62
2019-03-17T00:41:07.997Z,995.68
2019-03-17T00:41:34.004Z,995.66
2019-03-17T00:42:00.015Z,995.62
2019-03-17T00:42:26.076Z,995.64
2019-03-17T00:42:52.015Z,995.6
2019-03-17T00:43:18.007Z,995.64
2019-03-17T00:43:44.020Z,995.59
2019-03-17T00:44:10.017Z,995.57
2019-03-17T00:44:36.019Z,995.55
2019-03-17T00:45:02.013Z,995.58
2019-03-17T00:45:28.009Z,995.56
2019-03-17T00:45:54.019Z,995.64
2019-03-17T00:46:20.018Z,995.56
2019-03-17T00:46:46.020Z,995.5
2019-03-17T00:47:12.012Z,995.49
2019-03-17T00:47:38.008Z,995.52
2019-03-17T00:48:04.015Z,995.53
2019-03-17T00:48:30.014Z,995.46
2019-03-17T00:48:56.028Z,995.5
2019-03-17T00:49:22.027Z,995.46
2019-03-17T00:49:48.013Z,995.43
2019-03-17T00:50:14.025Z,995.4
2019-03-17T00:50:40.012Z,995.47
2019-03-17T00:51:06.024Z,995.47
2019-03-17T00:51:32.012Z,995.47
2019-03-17T00:51:58.023Z,995.44
2019-03-17T00:52:24.094Z,995.44
2019-03-17T00:52:50.027Z,995.38
2019-03-17T00:53:16.032Z,995.4
2019-03-17T00:53:42.037Z,995.35
2019-03-17T00:54:08.024Z,995.36
2019-03-17T00:54:34.021Z,995.4
2019-03-17T00:55:00.022Z,995.4
2019-03-17T00:55:26.025Z,995.36
2019-03-17T00:55:52.095Z,995.4
2019-03-17T00:56:18.021Z,995.39
2019-03-17T00:56:44.034Z,995.36
2019-03-17T00:57:10.023Z,995.41
2019-03-17T00:57:36.036Z,995.38
2019-03-17T00:58:02.022Z,995.37
2019-03-17T00:58:28.030Z,995.28
2019-03-17T00:58:54.097Z,995.32
2019-03-17T00:59:20.040Z,995.31
2019-03-17T00:59:46.041Z,995.33
2019-03-17T01:00:12.040Z,995.28
2019-03-17T01:00:38.024Z,995.31
2019-03-17T01:01:04.043Z,995.3
2019-03-17T01:01:30.033Z,995.26
2019-03-17T01:01:56.027Z,995.42
2019-03-17T01:02:22.034Z,995.29
2019-03-17T01:02:48.030Z,995.3
2019-03-17T01:03:14.115Z,995.26
2019-03-17T01:03:40.044Z,995.27
2019-03-17T01:04:06.047Z,995.29
2019-03-17T01:04:32.373Z,995.25
2019-03-17T01:04:58.029Z,995.22
2019-03-17T01:05:24.028Z,995.16
2019-03-17T01:05:50.031Z,995.15
2019-03-17T01:06:16.074Z,995.16
2019-03-17T01:06:42.048Z,995.13
2019-03-17T01:07:08.104Z,995.17
2019-03-17T01:07:34.055Z,995.09
2019-03-17T01:08:00.037Z,995.11
2019-03-17T01:08:26.050Z,995.11
2019-03-17T01:08:52.041Z,995.12
2019-03-17T01:09:18.041Z,995.03
2019-03-17T01:09:44.055Z,995.05
2019-03-17T01:10:10.054Z,995.05
2019-03-17T01:10:36.053Z,995.02
2019-03-17T01:11:02.054Z,995.02
2019-03-17T01:11:28.043Z,995.04
2019-03-17T01:11:54.054Z,995.09
2019-03-17T01:12:20.045Z,995.04
2019-03-17T01:12:46.063Z,995.02
2019-03-17T01:13:12.043Z,995.02
2019-03-17T01:13:38.052Z,995.03
2019-03-17T01:14:04.121Z,995.06
2019-03-17T01:14:30.063Z,995.04
2019-03-17T01:14:56.062Z,994.97
2019-03-17T01:15:22.046Z,995.04
2019-03-17T01:15:48.045Z,994.96
2019-03-17T01:16:14.049Z,994.95
2019-03-17T01:16:40.061Z,994.97
2019-03-17T01:17:06.127Z,994.96
2019-03-17T01:17:32.069Z,994.98
2019-03-17T01:17:58.105Z,994.93
2019-03-17T01:18:24.068Z,994.92
2019-03-17T01:18:50.056Z,994.94
2019-03-17T01:19:16.071Z,994.93
2019-03-17T01:19:42.050Z,994.91
2019-03-17T01:20:08.061Z,994.91
2019-03-17T01:20:34.139Z,994.93
2019-03-17T01:21:00.065Z,994.9
2019-03-17T01:21:26.068Z,994.84
2019-03-17T01:21:52.076Z,994.82
2019-03-17T01:22:18.058Z,994.84
2019-03-17T01:22:44.063Z,994.83
2019-03-17T01:23:10.055Z,994.84
2019-03-17T01:23:36.070Z,994.82
2019-03-17T01:24:02.077Z,994.79
2019-03-17T01:24:28.407Z,994.8
2019-03-17T01:24:54.072Z,994.76
2019-03-17T01:25:20.076Z,994.72
2019-03-17T01:25:46.075Z,994.73
2019-03-17T01:26:12.064Z,994.77
2019-03-17T01:26:38.064Z,994.82
2019-03-17T01:27:04.607Z,994.81
2019-03-17T01:27:30.070Z,994.79
2019-03-17T01:27:56.139Z,994.76
2019-03-17T01:28:22.085Z,994.76
2019-03-17T01:28:48.064Z,994.8
2019-03-17T01:29:14.086Z,994.7
2019-03-17T01:29:40.064Z,994.74
2019-03-17T01:30:06.065Z,994.77
2019-03-17T01:30:32.084Z,994.7
2019-03-17T01:30:58.134Z,994.75
2019-03-17T01:31:24.088Z,994.79
2019-03-17T01:31:50.073Z,994.74
2019-03-17T01:32:16.085Z,994.71
2019-03-17T01:32:42.073Z,994.76
2019-03-17T01:33:08.075Z,994.71
2019-03-17T01:33:34.071Z,994.67
2019-03-17T01:34:00.512Z,994.65
2019-03-17T01:34:26.080Z,994.64
2019-03-17T01:34:52.166Z,994.69
2019-03-17T01:35:18.076Z,994.63
2019-03-17T01:35:44.091Z,994.62
2019-03-17T01:36:10.082Z,994.6
2019-03-17T01:36:36.092Z,994.63
2019-03-17T01:37:02.075Z,994.61
2019-03-17T01:37:28.085Z,994.64
2019-03-17T01:37:54.094Z,994.63
2019-03-17T01:38:20.099Z,994.62
2019-03-17T01:38:46.093Z,994.62
2019-03-17T01:39:12.093Z,994.51
2019-03-17T01:39:38.080Z,994.5
2019-03-17T01:40:04.095Z,994.54
2019-03-17T01:40:30.085Z,994.52
2019-03-17T01:40:56.082Z,994.47
2019-03-17T01:41:22.088Z,994.53
2019-03-17T01:41:48.086Z,994.45
2019-03-17T01:42:14.162Z,994.45
2019-03-17T01:42:40.105Z,994.47
2019-03-17T01:43:06.105Z,994.48
2019-03-17T01:43:32.324Z,994.47
2019-03-17T01:43:58.087Z,994.46
2019-03-17T01:44:24.089Z,994.47
2019-03-17T01:44:50.088Z,994.42
2019-03-17T01:45:16.103Z,994.39
2019-03-17T01:45:42.107Z,994.46
2019-03-17T01:46:08.089Z,994.49
2019-03-17T01:46:34.105Z,994.37
2019-03-17T01:47:00.096Z,994.41
2019-03-17T01:47:26.111Z,994.45
2019-03-17T01:47:52.092Z,994.41
2019-03-17T01:48:18.098Z,994.41
2019-03-17T01:48:44.173Z,994.44
2019-03-17T01:49:10.117Z,994.41
2019-03-17T01:49:36.110Z,994.44
2019-03-17T01:50:02.101Z,994.46
2019-03-17T01:50:28.102Z,994.44
2019-03-17T01:50:54.102Z,994.37
2019-03-17T01:51:20.112Z,994.43
2019-03-17T01:51:46.116Z,994.45
2019-03-17T01:52:12.116Z,994.4
2019-03-17T01:52:38.096Z,994.39
2019-03-17T01:53:04.111Z,994.45
2019-03-17T01:53:30.099Z,994.38
2019-03-17T01:53:56.103Z,994.4
2019-03-17T01:54:22.116Z,994.4
2019-03-17T01:54:48.101Z,994.35
2019-03-17T01:55:14.124Z,994.3
2019-03-17T01:55:40.106Z,994.32
2019-03-17T01:56:06.121Z,994.38
2019-03-17T01:56:32.107Z,994.38
2019-03-17T01:56:58.117Z,994.37
2019-03-17T01:57:24.184Z,994.33
2019-03-17T01:57:50.124Z,994.33
2019-03-17T01:58:16.120Z,994.33
2019-03-17T01:58:42.106Z,994.32
2019-03-17T01:59:08.110Z,994.42
2019-03-17T01:59:34.115Z,994.29
2019-03-17T02:00:00.124Z,994.17
2019-03-17T02:00:26.194Z,994.33
2019-03-17T02:00:52.122Z,994.25
2019-03-17T02:01:18.111Z,994.3
2019-03-17T02:01:44.127Z,994.2
2019-03-17T02:02:10.108Z,994.29
2019-03-17T02:02:36.111Z,994.13
2019-03-17T02:03:02.126Z,994.26
2019-03-17T02:03:28.182Z,994.1
2019-03-17T02:03:54.130Z,994.11
2019-03-17T02:04:20.117Z,994.1
2019-03-17T02:04:46.136Z,994.06
2019-03-17T02:05:12.121Z,994.12
2019-03-17T02:05:38.115Z,994.1
2019-03-17T02:06:04.205Z,994.05
2019-03-17T02:06:30.133Z,994.08
2019-03-17T02:06:56.134Z,994.06
2019-03-17T02:07:22.132Z,994.08
2019-03-17T02:07:48.120Z,993.97
2019-03-17T02:08:14.136Z,994.01
2019-03-17T02:08:40.122Z,994.09
2019-03-17T02:09:06.139Z,994.05
2019-03-17T02:09:32.127Z,994.04
2019-03-17T02:09:58.123Z,993.97
2019-03-17T02:10:24.137Z,994
2019-03-17T02:10:50.143Z,993.97
2019-03-17T02:11:16.140Z,993.97
2019-03-17T02:11:42.125Z,993.96
2019-03-17T02:12:08.130Z,993.97
2019-03-17T02:12:34.134Z,994.01
2019-03-17T02:13:00.210Z,994.08
2019-03-17T02:13:26.144Z,994.08
2019-03-17T02:13:52.142Z,993.96
2019-03-17T02:14:18.131Z,993.97
2019-03-17T02:14:44.144Z,993.96
2019-03-17T02:15:10.132Z,994.01
2019-03-17T02:15:36.150Z,993.96
2019-03-17T02:16:02.140Z,993.98
2019-03-17T02:16:28.198Z,993.98
2019-03-17T02:16:54.147Z,993.93
2019-03-17T02:17:20.135Z,994.03
2019-03-17T02:17:46.149Z,993.91
2019-03-17T02:18:12.140Z,994.01
2019-03-17T02:18:38.135Z,993.96
2019-03-17T02:19:04.143Z,993.95
2019-03-17T02:19:30.151Z,993.95
2019-03-17T02:19:56.152Z,993.93
2019-03-17T02:20:22.165Z,993.89
2019-03-17T02:20:48.140Z,993.84
2019-03-17T02:21:14.154Z,993.88
2019-03-17T02:21:40.138Z,993.87
2019-03-17T02:22:06.413Z,993.88
2019-03-17T02:22:32.175Z,993.93
2019-03-17T02:22:58.140Z,993.9
2019-03-17T02:23:24.157Z,993.9
2019-03-17T02:23:50.146Z,993.85
2019-03-17T02:24:16.159Z,993.83
2019-03-17T02:24:42.144Z,993.86
2019-03-17T02:25:08.146Z,993.85
2019-03-17T02:25:34.168Z,993.81
2019-03-17T02:26:00.160Z,993.81
2019-03-17T02:26:26.221Z,993.79
2019-03-17T02:26:52.161Z,993.82
2019-03-17T02:27:18.147Z,993.81
2019-03-17T02:27:44.163Z,993.96
2019-03-17T02:28:10.146Z,993.81
2019-03-17T02:28:36.165Z,993.82
2019-03-17T02:29:02.156Z,993.84
2019-03-17T02:29:28.150Z,993.95
2019-03-17T02:29:54.171Z,993.86
2019-03-17T02:30:20.148Z,993.82
2019-03-17T02:30:46.166Z,993.85
2019-03-17T02:31:12.970Z,993.85
2019-03-17T02:31:38.152Z,993.79
2019-03-17T02:32:04.395Z,993.76
2019-03-17T02:32:30.535Z,993.82
2019-03-17T02:32:56.168Z,993.78
2019-03-17T02:33:22.174Z,993.78
2019-03-17T02:33:48.151Z,993.75
2019-03-17T02:34:14.159Z,993.78
2019-03-17T02:34:40.159Z,993.72
2019-03-17T02:35:06.177Z,993.82
2019-03-17T02:35:32.172Z,993.79
2019-03-17T02:35:58.157Z,993.64
2019-03-17T02:36:24.179Z,993.72
2019-03-17T02:36:50.163Z,993.7
2019-03-17T02:37:16.178Z,993.74
2019-03-17T02:37:42.163Z,993.68
2019-03-17T02:38:08.175Z,993.72
2019-03-17T02:38:34.182Z,993.74
2019-03-17T02:39:00.179Z,993.72
2019-03-17T02:39:26.184Z,993.81
2019-03-17T02:39:52.181Z,993.59
2019-03-17T02:40:18.164Z,993.67
2019-03-17T02:40:44.168Z,993.64
2019-03-17T02:41:10.168Z,993.62
2019-03-17T02:41:36.176Z,993.59
2019-03-17T02:42:02.246Z,993.64
2019-03-17T02:42:28.170Z,993.65
2019-03-17T02:42:54.188Z,993.65
2019-03-17T02:43:20.171Z,993.65
2019-03-17T02:43:46.186Z,993.63
2019-03-17T02:44:12.181Z,993.66
2019-03-17T02:44:38.191Z,993.66
2019-03-17T02:45:04.248Z,993.66
2019-03-17T02:45:30.191Z,993.65
2019-03-17T02:45:56.190Z,993.66
2019-03-17T02:46:22.181Z,993.56
2019-03-17T02:46:48.175Z,993.65
2019-03-17T02:47:14.551Z,993.69
2019-03-17T02:47:40.188Z,993.65
2019-03-17T02:48:06.268Z,993.63
2019-03-17T02:48:32.193Z,993.65
2019-03-17T02:48:58.179Z,993.68
2019-03-17T02:49:24.196Z,993.6
2019-03-17T02:49:50.176Z,993.68
2019-03-17T02:50:16.193Z,993.67
2019-03-17T02:50:42.180Z,993.64
2019-03-17T02:51:08.182Z,993.65
2019-03-17T02:51:34.198Z,993.62
2019-03-17T02:52:00.209Z,993.63
2019-03-17T02:52:26.201Z,993.67
2019-03-17T02:52:52.276Z,993.62
2019-03-17T02:53:18.183Z,993.52
2019-03-17T02:53:44.206Z,993.57
2019-03-17T02:54:10.183Z,993.59
2019-03-17T02:54:36.212Z,993.58
2019-03-17T02:55:02.266Z,993.54
2019-03-17T02:55:28.189Z,993.61
2019-03-17T02:55:54.202Z,993.51
2019-03-17T02:56:20.189Z,993.5
2019-03-17T02:56:46.205Z,993.57
2019-03-17T02:57:12.191Z,993.52
2019-03-17T02:57:38.191Z,993.6
2019-03-17T02:58:04.207Z,993.56
2019-03-17T02:58:30.212Z,993.65
2019-03-17T02:58:56.207Z,993.59
2019-03-17T02:59:22.208Z,993.62
2019-03-17T02:59:48.193Z,993.59
2019-03-17T03:00:14.191Z,993.52
2019-03-17T03:00:40.202Z,993.57
2019-03-17T03:01:06.279Z,993.55
2019-03-17T03:01:32.873Z,993.46
2019-03-17T03:01:58.312Z,993.51
2019-03-17T03:02:24.211Z,993.55
2019-03-17T03:02:50.201Z,993.49
2019-03-17T03:03:16.207Z,993.52
2019-03-17T03:03:42.220Z,993.5
2019-03-17T03:04:08.264Z,993.5
2019-03-17T03:04:34.224Z,993.45
2019-03-17T03:05:00.199Z,993.48
2019-03-17T03:05:26.217Z,993.48
2019-03-17T03:05:52.202Z,993.41
2019-03-17T03:06:18.650Z,993.46
2019-03-17T03:06:44.275Z,993.48
2019-03-17T03:07:10.249Z,993.52
2019-03-17T03:07:36.221Z,993.51
2019-03-17T03:08:02.221Z,993.47
2019-03-17T03:08:28.210Z,993.47
2019-03-17T03:08:54.229Z,993.36
2019-03-17T03:09:20.207Z,993.48
2019-03-17T03:09:46.210Z,993.37
2019-03-17T03:10:12.218Z,993.45
2019-03-17T03:10:38.277Z,993.4
2019-03-17T03:11:04.225Z,993.37
2019-03-17T03:11:30.211Z,993.4
2019-03-17T03:11:56.228Z,993.39
2019-03-17T03:12:22.210Z,993.37
2019-03-17T03:12:48.213Z,993.34
2019-03-17T03:13:14.221Z,993.34
2019-03-17T03:13:40.289Z,993.36
2019-03-17T03:14:06.237Z,993.31
2019-03-17T03:14:32.228Z,993.33
2019-03-17T03:14:58.217Z,993.37
2019-03-17T03:15:24.232Z,993.36
2019-03-17T03:15:50.218Z,993.33
2019-03-17T03:16:16.280Z,993.42
2019-03-17T03:16:42.235Z,993.29
2019-03-17T03:17:08.222Z,993.28
2019-03-17T03:17:34.236Z,993.32
2019-03-17T03:18:00.217Z,993.27
2019-03-17T03:18:26.233Z,993.32
2019-03-17T03:18:52.222Z,993.36
2019-03-17T03:19:18.228Z,993.32
2019-03-17T03:19:44.238Z,993.28
2019-03-17T03:20:10.236Z,993.33
2019-03-17T03:20:36.640Z,993.3
2019-03-17T03:21:02.654Z,993.23
2019-03-17T03:21:28.227Z,993.28
2019-03-17T03:21:54.227Z,993.3
2019-03-17T03:22:20.239Z,993.31
2019-03-17T03:22:46.307Z,993.34
2019-03-17T03:23:12.244Z,993.28
2019-03-17T03:23:38.225Z,993.33
2019-03-17T03:24:04.245Z,993.29
2019-03-17T03:24:30.234Z,993.26
2019-03-17T03:24:56.228Z,993.28
2019-03-17T03:25:22.250Z,993.27
2019-03-17T03:25:48.296Z,993.24
2019-03-17T03:26:14.249Z,993.28
2019-03-17T03:26:40.256Z,993.29
2019-03-17T03:27:06.253Z,993.25
2019-03-17T03:27:32.232Z,993.3
2019-03-17T03:27:58.233Z,993.15
2019-03-17T03:28:24.246Z,993.23
2019-03-17T03:28:50.246Z,993.27
2019-03-17T03:29:16.249Z,993.24
2019-03-17T03:29:42.252Z,993.23
2019-03-17T03:30:08.247Z,993.23
2019-03-17T03:30:34.262Z,993.23
2019-03-17T03:31:00.244Z,993.32
2019-03-17T03:31:26.256Z,993.28
2019-03-17T03:31:52.240Z,993.2
2019-03-17T03:32:18.239Z,993.19
2019-03-17T03:32:44.322Z,993.22
2019-03-17T03:33:10.254Z,993.19
2019-03-17T03:33:36.261Z,993.23
2019-03-17T03:34:02.246Z,993.2
2019-03-17T03:34:28.243Z,993.23
2019-03-17T03:34:54.251Z,993.14
2019-03-17T03:35:20.255Z,993.19
2019-03-17T03:35:46.320Z,993.18
2019-03-17T03:36:12.348Z,993.19
2019-03-17T03:36:38.246Z,993.25
2019-03-17T03:37:04.739Z,993.2
2019-03-17T03:37:30.245Z,993.24
2019-03-17T03:37:56.253Z,993.16
2019-03-17T03:38:22.264Z,993.22
2019-03-17T03:38:48.252Z,993.26
2019-03-17T03:39:14.263Z,993.2
2019-03-17T03:39:40.250Z,993.17
2019-03-17T03:40:06.266Z,993.25
2019-03-17T03:40:32.257Z,993.17
2019-03-17T03:40:58.264Z,993.22
2019-03-17T03:41:24.334Z,993.12
2019-03-17T03:41:50.268Z,993.14
2019-03-17T03:42:16.268Z,993.16
2019-03-17T03:42:42.255Z,993.11
2019-03-17T03:43:08.256Z,993.15
2019-03-17T03:43:34.255Z,993.12
2019-03-17T03:44:00.263Z,993.15
2019-03-17T03:44:26.339Z,993.13
2019-03-17T03:44:52.276Z,993.17
2019-03-17T03:45:18.260Z,993.11
2019-03-17T03:45:44.271Z,993.13
2019-03-17T03:46:10.265Z,993
2019-03-17T03:46:36.278Z,993.14
2019-03-17T03:47:02.258Z,993.08
2019-03-17T03:47:28.260Z,993.09
2019-03-17T03:47:54.327Z,993.06
2019-03-17T03:48:20.264Z,993.02
2019-03-17T03:48:46.277Z,993.03
2019-03-17T03:49:12.265Z,992.97
2019-03-17T03:49:38.268Z,993.06
2019-03-17T03:50:04.267Z,993.04
2019-03-17T03:50:30.284Z,993.11
2019-03-17T03:50:56.353Z,993.1
2019-03-17T03:51:22.284Z,993.1
2019-03-17T03:51:48.265Z,993.05
2019-03-17T03:52:14.283Z,993.11
2019-03-17T03:52:40.274Z,993.02
2019-03-17T03:53:06.724Z,993.05
2019-03-17T03:53:32.297Z,993.02
2019-03-17T03:53:58.341Z,993.08
2019-03-17T03:54:24.369Z,993.1
2019-03-17T03:54:50.278Z,993.09
2019-03-17T03:55:16.293Z,993.05
2019-03-17T03:55:42.290Z,993.04
2019-03-17T03:56:08.274Z,993.07
2019-03-17T03:56:34.279Z,993.08
2019-03-17T03:57:00.288Z,993.12
2019-03-17T03:57:26.294Z,993.09
2019-03-17T03:57:52.355Z,993.03
2019-03-17T03:58:18.275Z,993.04
2019-03-17T03:58:44.299Z,993.06
2019-03-17T03:59:10.281Z,993
2019-03-17T03:59:36.294Z,993.02
2019-03-17T04:00:02.279Z,993.08
2019-03-17T04:00:28.291Z,993.05
2019-03-17T04:00:54.298Z,993
2019-03-17T04:01:20.502Z,992.95
2019-03-17T04:01:46.294Z,992.97
2019-03-17T04:02:12.284Z,992.95
2019-03-17T04:02:38.282Z,992.88
2019-03-17T04:03:04.285Z,992.91
2019-03-17T04:03:30.287Z,992.95
2019-03-17T04:03:56.299Z,992.93
2019-03-17T04:04:22.299Z,992.98
2019-03-17T04:04:48.288Z,992.94
2019-03-17T04:05:14.301Z,992.86
2019-03-17T04:05:40.285Z,992.86
2019-03-17T04:06:06.303Z,992.88
2019-03-17T04:06:32.287Z,992.91
2019-03-17T04:06:58.296Z,992.91
2019-03-17T04:07:24.301Z,992.9
2019-03-17T04:07:50.376Z,992.97
2019-03-17T04:08:16.308Z,992.9
2019-03-17T04:08:42.310Z,992.88
2019-03-17T04:09:08.293Z,992.84
2019-03-17T04:09:34.295Z,992.94
2019-03-17T04:10:00.293Z,992.92
2019-03-17T04:10:26.300Z,992.91
2019-03-17T04:10:52.374Z,992.89
2019-03-17T04:11:18.297Z,992.88
2019-03-17T04:11:44.310Z,992.91
2019-03-17T04:12:10.297Z,992.93
2019-03-17T04:12:36.311Z,992.91
2019-03-17T04:13:02.303Z,992.82
2019-03-17T04:13:28.301Z,992.91
2019-03-17T04:13:54.305Z,992.87
2019-03-17T04:14:20.320Z,992.8
2019-03-17T04:14:46.380Z,992.9
2019-03-17T04:15:12.319Z,992.88
2019-03-17T04:15:38.301Z,992.9
2019-03-17T04:16:04.316Z,992.87
2019-03-17T04:16:30.308Z,992.82
2019-03-17T04:16:56.316Z,992.89
2019-03-17T04:17:22.308Z,992.9
2019-03-17T04:17:48.309Z,992.91
2019-03-17T04:18:14.383Z,992.94
2019-03-17T04:18:40.319Z,992.99
2019-03-17T04:19:06.531Z,992.91
2019-03-17T04:19:32.316Z,992.89
2019-03-17T04:19:58.310Z,992.88
2019-03-17T04:20:24.309Z,992.94
2019-03-17T04:20:50.308Z,992.98
2019-03-17T04:21:16.638Z,992.97
2019-03-17T04:21:42.326Z,992.9
2019-03-17T04:22:08.376Z,992.96
2019-03-17T04:22:34.334Z,992.99
2019-03-17T04:23:00.316Z,993
2019-03-17T04:23:26.327Z,993.02
2019-03-17T04:23:52.467Z,993.06
2019-03-17T04:24:18.312Z,993.02
2019-03-17T04:24:44.326Z,992.95
2019-03-17T04:25:10.378Z,993.1
2019-03-17T04:25:36.328Z,993.01
2019-03-17T04:26:02.330Z,992.97
2019-03-17T04:26:28.319Z,992.99
2019-03-17T04:26:54.331Z,993.02
2019-03-17T04:27:20.322Z,992.98
2019-03-17T04:27:46.339Z,993
2019-03-17T04:28:12.327Z,992.99
2019-03-17T04:28:38.322Z,993.01
2019-03-17T04:29:04.399Z,993.02
2019-03-17T04:29:30.337Z,993.04
2019-03-17T04:29:56.331Z,993.09
2019-03-17T04:30:22.322Z,992.94
2019-03-17T04:30:48.326Z,992.96
2019-03-17T04:31:14.326Z,992.93
2019-03-17T04:31:40.341Z,992.96
2019-03-17T04:32:06.345Z,993.01
2019-03-17T04:32:32.341Z,992.9
2019-03-17T04:32:58.325Z,992.94
2019-03-17T04:33:24.328Z,992.92
2019-03-17T04:33:50.332Z,992.82
2019-03-17T04:34:16.335Z,992.89
2019-03-17T04:34:42.407Z,992.9
2019-03-17T04:35:08.330Z,992.92
2019-03-17T04:35:34.345Z,992.98
2019-03-17T04:36:00.329Z,993.01
2019-03-17T04:36:26.344Z,992.88
2019-03-17T04:36:52.332Z,992.91
2019-03-17T04:37:18.359Z,992.92
2019-03-17T04:37:44.411Z,992.92
2019-03-17T04:38:10.350Z,992.96
2019-03-17T04:38:36.348Z,992.95
2019-03-17T04:39:02.350Z,992.97
2019-03-17T04:39:28.334Z,993.03
2019-03-17T04:39:54.349Z,992.99
2019-03-17T04:40:20.338Z,992.93
2019-03-17T04:40:46.348Z,992.95
2019-03-17T04:41:12.355Z,992.98
2019-03-17T04:41:38.402Z,992.89
2019-03-17T04:42:04.352Z,992.91
2019-03-17T04:42:30.338Z,992.8
2019-03-17T04:42:56.360Z,992.91
2019-03-17T04:43:22.345Z,992.97
2019-03-17T04:43:48.339Z,992.91
2019-03-17T04:44:14.428Z,992.94
2019-03-17T04:44:40.350Z,992.92
2019-03-17T04:45:06.358Z,992.96
2019-03-17T04:45:32.357Z,992.92
2019-03-17T04:45:58.346Z,992.94
2019-03-17T04:46:24.370Z,992.97
2019-03-17T04:46:50.351Z,992.93
2019-03-17T04:47:16.349Z,992.95
2019-03-17T04:47:42.359Z,992.97
2019-03-17T04:48:08.346Z,992.95
2019-03-17T04:48:34.362Z,992.94
2019-03-17T04:49:00.363Z,992.95
2019-03-17T04:49:26.361Z,992.96
2019-03-17T04:49:52.348Z,992.94
2019-03-17T04:50:18.353Z,992.95
2019-03-17T04:50:44.350Z,992.9
2019-03-17T04:51:10.363Z,992.84
2019-03-17T04:51:36.443Z,992.88
2019-03-17T04:52:02.370Z,992.89
2019-03-17T04:52:28.352Z,992.93
2019-03-17T04:52:54.374Z,992.92
2019-03-17T04:53:20.352Z,992.93
2019-03-17T04:53:46.371Z,992.92
2019-03-17T04:54:12.357Z,992.93
2019-03-17T04:54:38.357Z,993.05
2019-03-17T04:55:04.363Z,992.91
2019-03-17T04:55:30.439Z,992.95
2019-03-17T04:55:56.380Z,992.96
2019-03-17T04:56:22.375Z,992.97
2019-03-17T04:56:48.361Z,993.04
2019-03-17T04:57:14.359Z,992.99
2019-03-17T04:57:40.366Z,992.94
2019-03-17T04:58:06.377Z,993.01
2019-03-17T04:58:32.923Z,992.97
2019-03-17T04:58:58.362Z,993.08
2019-03-17T04:59:24.383Z,993.05
2019-03-17T04:59:50.363Z,993.09
2019-03-17T05:00:16.380Z,993.04
2019-03-17T05:00:42.367Z,992.99
2019-03-17T05:01:08.367Z,993.1
2019-03-17T05:01:34.440Z,992.98
2019-03-17T05:02:00.386Z,993.03
2019-03-17T05:02:26.389Z,993.01
2019-03-17T05:02:52.378Z,993.02
2019-03-17T05:03:18.369Z,993.04
2019-03-17T05:03:44.385Z,993.07
2019-03-17T05:04:10.372Z,993.01
2019-03-17T05:04:36.376Z,993.04
2019-03-17T05:05:02.613Z,993.08
2019-03-17T05:05:28.439Z,993.05
2019-03-17T05:05:54.387Z,993.09
2019-03-17T05:06:20.374Z,993.06
2019-03-17T05:06:46.433Z,993.07
2019-03-17T05:07:12.383Z,993.1
2019-03-17T05:07:38.380Z,993.07
2019-03-17T05:08:04.797Z,993.08
2019-03-17T05:08:30.391Z,993.04
2019-03-17T05:08:56.393Z,993.02
2019-03-17T05:09:22.522Z,993.06
2019-03-17T05:09:48.375Z,993.03
2019-03-17T05:10:14.381Z,993.03
2019-03-17T05:10:40.387Z,993.05
2019-03-17T05:11:06.403Z,993.05
2019-03-17T05:11:32.408Z,993.11
2019-03-17T05:11:58.383Z,993.06
2019-03-17T05:12:24.395Z,993.01
2019-03-17T05:12:50.379Z,993.08
2019-03-17T05:13:16.400Z,993.06
2019-03-17T05:13:42.383Z,993.05
2019-03-17T05:14:08.384Z,993.06
2019-03-17T05:14:34.402Z,993.02
2019-03-17T05:15:00.400Z,993.06
2019-03-17T05:15:26.402Z,993.08
2019-03-17T05:15:52.402Z,993.03
2019-03-17T05:16:18.389Z,993.02
2019-03-17T05:16:44.388Z,993.06
2019-03-17T05:17:10.385Z,993.06
2019-03-17T05:17:36.396Z,993.04
2019-03-17T05:18:02.782Z,993
2019-03-17T05:18:28.389Z,993.05
2019-03-17T05:18:54.403Z,993.08
2019-03-17T05:19:20.389Z,993.08
2019-03-17T05:19:46.406Z,993.1
2019-03-17T05:20:12.406Z,993.07
2019-03-17T05:20:38.393Z,993.02
2019-03-17T05:21:04.402Z,993.06
2019-03-17T05:21:30.476Z,993.08
2019-03-17T05:21:56.406Z,993.04
2019-03-17T05:22:22.409Z,993.11
2019-03-17T05:22:48.394Z,993.08
2019-03-17T05:23:14.415Z,993.06
2019-03-17T05:23:40.398Z,993.07
2019-03-17T05:24:06.407Z,993.05
2019-03-17T05:24:32.413Z,993.02
2019-03-17T05:24:58.401Z,992.99
2019-03-17T05:25:24.458Z,992.98
2019-03-17T05:25:50.402Z,993.01